createdAt,value
2023-03-15T00:00:42.588Z,86.27
2023-03-15T00:03:46.007Z,86.97
2023-03-15T00:06:48.752Z,87.47
2023-03-15T00:09:52.875Z,87.65
2023-03-15T00:12:55.622Z,87.50
2023-03-15T00:16:00.545Z,87.62
2023-03-15T00:19:03.270Z,87.94
2023-03-15T00:22:05.998Z,87.81
2023-03-15T00:25:09.093Z,87.73
2023-03-15T00:28:12.391Z,87.54
2023-03-15T00:31:21.126Z,87.54
2023-03-15T00:34:26.534Z,86.93
2023-03-15T00:37:30.141Z,88.04
2023-03-15T00:40:37.197Z,88.32
2023-03-15T00:43:40.623Z,88.25
2023-03-15T00:46:43.438Z,88.22
2023-03-15T00:49:46.366Z,88.24
2023-03-15T00:52:49.951Z,88.18
2023-03-15T00:55:52.558Z,87.48
2023-03-15T00:58:55.712Z,87.32
2023-03-15T01:01:58.368Z,88.63
2023-03-15T01:05:01.840Z,88.49
2023-03-15T01:08:04.867Z,88.01
2023-03-15T01:11:14.571Z,88.41
2023-03-15T01:14:18.973Z,89.04
2023-03-15T01:17:21.794Z,88.84
2023-03-15T01:20:24.486Z,88.79
2023-03-15T01:23:27.192Z,89.07
2023-03-15T01:26:29.740Z,89.04
2023-03-15T01:29:32.397Z,88.72
2023-03-15T01:32:37.128Z,87.92
2023-03-15T01:35:39.862Z,88.15
2023-03-15T01:38:42.699Z,88.43
2023-03-15T01:41:46.100Z,88.18
2023-03-15T01:45:00.200Z,88.19
2023-03-15T01:48:03.144Z,87.31
2023-03-15T01:51:28.762Z,87.84
2023-03-15T01:54:39.711Z,87.97
2023-03-15T01:57:52.133Z,88.24
2023-03-15T02:00:55.092Z,88.16
2023-03-15T02:04:06.947Z,89.35
2023-03-15T02:07:15.306Z,88.19
2023-03-15T02:10:30.840Z,87.65
2023-03-15T02:13:36.500Z,88.25
2023-03-15T02:16:44.420Z,88.14
2023-03-15T02:20:06.923Z,87.80
2023-03-15T02:23:13.902Z,87.22
2023-03-15T02:26:24.151Z,87.73
2023-03-15T02:29:29.454Z,87.23
2023-03-15T02:32:32.685Z,87.43
2023-03-15T02:35:35.298Z,88.13
2023-03-15T02:38:38.031Z,87.77
2023-03-15T02:41:43.813Z,86.99
2023-03-15T02:44:48.761Z,86.04
2023-03-15T02:47:51.945Z,86.80
2023-03-15T02:50:55.819Z,87.01
2023-03-15T02:53:58.372Z,87.46
2023-03-15T02:57:02.953Z,88.64
2023-03-15T03:00:14.534Z,88.34
2023-03-15T03:03:18.351Z,88.22
2023-03-15T03:06:21.079Z,87.58
2023-03-15T03:09:24.411Z,88.51
2023-03-15T03:12:27.827Z,88.28
2023-03-15T03:15:30.942Z,88.92
2023-03-15T03:18:35.927Z,89.61
2023-03-15T03:21:43.327Z,90.12
2023-03-15T03:24:48.240Z,89.77
2023-03-15T03:27:52.016Z,90.33
2023-03-15T03:30:56.283Z,89.74
2023-03-15T03:33:59.160Z,89.68
2023-03-15T03:37:04.386Z,89.34
2023-03-15T03:40:28.083Z,89.36
2023-03-15T03:43:30.841Z,88.90
2023-03-15T03:46:34.178Z,89.18
2023-03-15T03:49:36.892Z,87.49
2023-03-15T03:52:39.761Z,87.59
2023-03-15T03:55:46.868Z,87.68
2023-03-15T03:58:54.186Z,87.90
2023-03-15T04:02:04.042Z,88.02
2023-03-15T04:05:07.583Z,87.99
2023-03-15T04:08:10.929Z,88.96
2023-03-15T04:11:18.743Z,89.23
2023-03-15T04:14:28.156Z,89.35
2023-03-15T04:17:30.779Z,89.56
2023-03-15T04:20:36.678Z,89.62
2023-03-15T04:23:39.656Z,90.09
2023-03-15T04:27:02.848Z,89.89
2023-03-15T04:30:30.749Z,89.60
2023-03-15T04:33:45.573Z,89.12
2023-03-15T04:37:07.109Z,89.42
2023-03-15T04:40:15.443Z,89.01
2023-03-15T04:43:47.022Z,90.46
2023-03-15T04:46:59.453Z,90.76
2023-03-15T04:50:13.626Z,91.09
2023-03-15T04:53:26.345Z,91.04
2023-03-15T04:56:52.344Z,92.05
2023-03-15T05:00:07.789Z,92.19
2023-03-15T05:03:29.258Z,91.54
2023-03-15T05:06:46.627Z,91.00
2023-03-15T05:10:12.499Z,90.56
2023-03-15T05:13:35.484Z,90.44
2023-03-15T05:17:04.168Z,89.83
2023-03-15T05:20:27.033Z,89.59
2023-03-15T05:23:48.075Z,88.80
2023-03-15T05:27:05.137Z,87.51
2023-03-15T05:30:28.205Z,87.92
2023-03-15T05:33:54.512Z,88.45
2023-03-15T05:37:12.436Z,87.47
2023-03-15T05:40:46.968Z,86.38
2023-03-15T05:44:03.106Z,85.95
2023-03-15T05:47:28.724Z,85.75
2023-03-15T05:50:52.617Z,85.13
2023-03-15T05:53:55.587Z,84.65
2023-03-15T05:57:13.485Z,84.65
2023-03-15T06:00:37.783Z,84.44
2023-03-15T06:03:49.849Z,85.90
2023-03-15T06:06:58.639Z,85.47
2023-03-15T06:10:01.651Z,85.11
2023-03-15T06:13:05.952Z,84.49
2023-03-15T06:16:08.833Z,84.67
2023-03-15T06:19:16.765Z,85.22
2023-03-15T06:22:20.615Z,84.78
2023-03-15T06:25:30.588Z,84.12
2023-03-15T06:28:34.187Z,81.29
2023-03-15T06:31:37.677Z,81.52
2023-03-15T06:34:44.216Z,82.68
2023-03-15T06:37:49.255Z,84.29
2023-03-15T06:40:53.694Z,84.10
2023-03-15T06:43:56.310Z,83.68
2023-03-15T06:46:59.143Z,83.20
2023-03-15T06:50:03.917Z,82.86
2023-03-15T06:53:06.939Z,84.39
2023-03-15T06:56:09.726Z,84.76
2023-03-15T06:59:12.437Z,84.42
2023-03-15T07:02:18.695Z,84.41
2023-03-15T07:05:21.357Z,84.17
2023-03-15T07:08:25.691Z,83.51
2023-03-15T07:11:28.356Z,83.34
2023-03-15T07:14:31.247Z,84.81
2023-03-15T07:17:33.884Z,84.84
2023-03-15T07:20:37.885Z,85.70
2023-03-15T07:23:40.563Z,86.03
2023-03-15T07:26:43.497Z,85.79
2023-03-15T07:29:46.405Z,84.71
2023-03-15T07:32:49.693Z,84.44
2023-03-15T07:35:53.914Z,85.14
2023-03-15T07:38:56.618Z,85.01
2023-03-15T07:41:59.932Z,85.68
2023-03-15T07:45:15.312Z,85.13
2023-03-15T07:48:18.028Z,84.45
2023-03-15T07:51:20.721Z,85.41
2023-03-15T07:54:23.451Z,84.60
2023-03-15T07:57:28.738Z,85.92
2023-03-15T08:00:31.858Z,86.23
2023-03-15T08:03:34.603Z,86.89
2023-03-15T08:06:37.174Z,85.38
2023-03-15T08:09:39.844Z,85.79
2023-03-15T08:12:43.278Z,85.79
2023-03-15T08:15:47.382Z,86.16
2023-03-15T08:18:50.078Z,86.18
2023-03-15T08:21:53.978Z,85.63
2023-03-15T08:24:57.686Z,85.74
2023-03-15T08:28:01.118Z,85.33
2023-03-15T08:31:08.239Z,84.43
2023-03-15T08:34:12.222Z,85.82
2023-03-15T08:37:14.842Z,86.05
2023-03-15T08:40:25.227Z,85.60
2023-03-15T08:43:27.955Z,86.62
2023-03-15T08:46:30.847Z,85.07
2023-03-15T08:49:33.820Z,85.39
2023-03-15T08:52:36.472Z,85.81
2023-03-15T08:55:39.187Z,86.62
2023-03-15T08:58:41.994Z,84.85
2023-03-15T09:01:45.037Z,86.33
2023-03-15T09:04:47.952Z,85.61
2023-03-15T09:07:53.105Z,86.04
2023-03-15T09:10:57.271Z,86.39
2023-03-15T09:13:59.811Z,85.93
2023-03-15T09:17:03.287Z,86.18
2023-03-15T09:20:12.317Z,86.71
2023-03-15T09:23:15.372Z,86.93
2023-03-15T09:26:18.000Z,87.51
2023-03-15T09:29:21.267Z,87.08
2023-03-15T09:32:23.896Z,86.90
2023-03-15T09:35:26.822Z,86.61
2023-03-15T09:38:29.615Z,86.93
2023-03-15T09:41:34.952Z,87.11
2023-03-15T09:44:51.428Z,87.72
2023-03-15T09:48:11.926Z,88.34
2023-03-15T09:51:18.587Z,87.58
2023-03-15T09:54:40.630Z,88.26
2023-03-15T09:57:48.730Z,88.79
2023-03-15T10:00:56.872Z,88.51
2023-03-15T10:04:08.588Z,88.50
2023-03-15T10:07:14.722Z,89.41
2023-03-15T10:10:23.281Z,89.46
2023-03-15T10:13:29.620Z,88.92
2023-03-15T10:16:32.232Z,89.18
2023-03-15T10:19:35.029Z,88.84
2023-03-15T10:22:54.976Z,89.23
2023-03-15T10:25:58.150Z,88.24
2023-03-15T10:29:03.871Z,88.73
2023-03-15T10:32:16.157Z,88.10
2023-03-15T10:35:20.100Z,88.36
2023-03-15T10:38:24.719Z,88.60
2023-03-15T10:41:38.025Z,88.66
2023-03-15T10:44:40.732Z,88.48
2023-03-15T10:47:50.410Z,89.38
2023-03-15T10:50:58.365Z,88.93
2023-03-15T10:54:06.874Z,87.95
2023-03-15T10:57:18.941Z,89.58
2023-03-15T11:00:36.462Z,89.34
2023-03-15T11:03:41.649Z,89.51
2023-03-15T11:06:50.852Z,89.25
2023-03-15T11:09:59.075Z,89.36
2023-03-15T11:13:22.508Z,89.38
2023-03-15T11:16:25.120Z,89.56
2023-03-15T11:19:31.988Z,88.60
2023-03-15T11:22:34.676Z,88.87
2023-03-15T11:25:37.366Z,89.00
2023-03-15T11:28:44.719Z,88.21
2023-03-15T11:31:48.477Z,88.91
2023-03-15T11:34:59.941Z,89.43
2023-03-15T11:38:15.397Z,88.15
2023-03-15T11:41:35.221Z,87.61
2023-03-15T11:44:43.818Z,88.58
2023-03-15T11:47:56.885Z,88.47
2023-03-15T11:51:01.330Z,87.86
2023-03-15T11:54:09.527Z,88.14
2023-03-15T11:57:43.449Z,87.12
2023-03-15T12:00:47.063Z,87.82
2023-03-15T12:03:49.668Z,88.32
2023-03-15T12:06:54.772Z,87.06
2023-03-15T12:10:03.199Z,88.09
2023-03-15T12:13:19.240Z,87.79
2023-03-15T12:16:23.460Z,86.99
2023-03-15T12:19:27.805Z,87.83
2023-03-15T12:22:34.205Z,87.78
2023-03-15T12:25:54.284Z,87.16
2023-03-15T12:29:00.789Z,87.25
2023-03-15T12:32:03.286Z,87.40
2023-03-15T12:35:17.725Z,88.11
2023-03-15T12:38:23.688Z,86.79
2023-03-15T12:41:43.726Z,86.74
2023-03-15T12:44:46.342Z,86.30
2023-03-15T12:47:51.694Z,87.18
2023-03-15T12:50:58.616Z,86.89
2023-03-15T12:54:03.400Z,87.32
2023-03-15T12:57:10.660Z,86.12
2023-03-15T13:00:18.794Z,86.34
2023-03-15T13:03:24.028Z,86.56
2023-03-15T13:06:39.299Z,85.72
2023-03-15T13:09:45.078Z,85.59
2023-03-15T13:13:14.418Z,85.42
2023-03-15T13:16:49.320Z,85.30
2023-03-15T13:20:29.272Z,84.25
2023-03-15T13:23:34.419Z,84.96
2023-03-15T13:26:46.085Z,85.35
2023-03-15T13:29:50.575Z,81.95
2023-03-15T13:33:19.240Z,82.87
2023-03-15T13:36:23.636Z,83.22
2023-03-15T13:39:28.924Z,82.18
2023-03-15T13:42:31.526Z,82.57
2023-03-15T13:45:37.820Z,82.11
2023-03-15T13:48:43.376Z,82.49
2023-03-15T13:51:48.604Z,82.50
2023-03-15T13:54:54.045Z,81.51
2023-03-15T13:58:04.879Z,82.14
2023-03-15T14:01:11.739Z,82.56
2023-03-15T14:04:17.545Z,81.74
2023-03-15T14:07:33.081Z,81.83
2023-03-15T14:10:38.820Z,81.66
2023-03-15T14:13:51.627Z,82.33
2023-03-15T14:17:04.748Z,80.56
2023-03-15T14:20:15.240Z,80.61
2023-03-15T14:23:24.434Z,80.13
2023-03-15T14:26:29.735Z,79.29
2023-03-15T14:29:36.055Z,79.57
2023-03-15T14:32:50.812Z,79.86
2023-03-15T14:35:58.437Z,77.87
2023-03-15T14:39:01.094Z,78.19
2023-03-15T14:42:05.418Z,77.51
2023-03-15T14:45:09.561Z,77.18
2023-03-15T14:48:27.558Z,74.48
2023-03-15T14:51:32.765Z,74.26
2023-03-15T14:54:35.471Z,74.13
2023-03-15T14:57:38.195Z,73.98
2023-03-15T15:00:58.227Z,72.84
2023-03-15T15:04:03.063Z,73.99
2023-03-15T15:07:05.768Z,73.98
2023-03-15T15:10:08.971Z,72.63
2023-03-15T15:13:29.028Z,73.16
2023-03-15T15:16:31.586Z,72.50
2023-03-15T15:19:34.131Z,72.30
2023-03-15T15:22:36.762Z,72.83
2023-03-15T15:25:39.487Z,72.72
2023-03-15T15:28:42.440Z,71.54
2023-03-15T15:31:45.780Z,71.33
2023-03-15T15:34:48.603Z,71.25
2023-03-15T15:37:52.057Z,71.43
2023-03-15T15:40:54.962Z,70.68
2023-03-15T15:44:00.798Z,69.78
2023-03-15T15:47:03.471Z,67.92
2023-03-15T15:50:07.184Z,67.96
2023-03-15T15:53:16.181Z,67.81
2023-03-15T15:56:18.948Z,66.05
2023-03-15T15:59:21.838Z,66.97
2023-03-15T16:02:24.649Z,66.02
2023-03-15T16:05:31.251Z,66.18
2023-03-15T16:08:38.858Z,67.18
2023-03-15T16:11:42.795Z,67.24
2023-03-15T16:14:45.608Z,66.82
2023-03-15T16:17:48.758Z,65.86
2023-03-15T16:20:54.054Z,67.22
2023-03-15T16:24:11.162Z,66.16
2023-03-15T16:27:16.620Z,66.08
2023-03-15T16:30:24.849Z,64.97
2023-03-15T16:33:28.374Z,64.63
2023-03-15T16:36:34.564Z,64.12
2023-03-15T16:39:37.952Z,64.22
2023-03-15T16:42:40.960Z,65.49
2023-03-15T16:45:44.223Z,66.28
2023-03-15T16:48:47.003Z,65.62
2023-03-15T16:51:53.110Z,66.11
2023-03-15T16:54:56.211Z,68.45
2023-03-15T16:58:01.322Z,67.79
2023-03-15T17:01:04.715Z,69.42
2023-03-15T17:04:07.628Z,67.74
2023-03-15T17:07:14.454Z,69.09
2023-03-15T17:10:27.563Z,68.19
2023-03-15T17:13:32.739Z,67.12
2023-03-15T17:16:36.240Z,67.78
2023-03-15T17:19:39.008Z,65.66
2023-03-15T17:22:42.848Z,66.33
2023-03-15T17:25:45.626Z,64.42
2023-03-15T17:28:49.942Z,64.28
2023-03-15T17:31:53.105Z,63.38
2023-03-15T17:34:59.077Z,64.61
2023-03-15T17:38:06.534Z,64.87
2023-03-15T17:41:20.448Z,64.64
2023-03-15T17:44:23.516Z,65.37
2023-03-15T17:47:26.746Z,64.85
2023-03-15T17:50:32.514Z,64.66
2023-03-15T17:53:35.366Z,65.54
2023-03-15T17:56:38.712Z,66.06
2023-03-15T17:59:41.376Z,64.52
2023-03-15T18:02:49.794Z,65.93
2023-03-15T18:06:01.404Z,64.78
2023-03-15T18:09:04.709Z,64.50
2023-03-15T18:12:12.029Z,63.49
2023-03-15T18:15:21.216Z,62.33
2023-03-15T18:18:23.969Z,63.47
2023-03-15T18:21:28.128Z,63.97
2023-03-15T18:24:31.878Z,61.92
2023-03-15T18:27:34.934Z,61.41
2023-03-15T18:30:38.049Z,63.40
2023-03-15T18:33:41.666Z,62.79
2023-03-15T18:36:44.556Z,62.76
2023-03-15T18:39:47.535Z,63.12
2023-03-15T18:42:50.724Z,62.35
2023-03-15T18:45:54.398Z,62.03
2023-03-15T18:48:57.108Z,63.02
2023-03-15T18:52:01.588Z,63.06
2023-03-15T18:55:07.786Z,63.69
2023-03-15T18:58:13.184Z,62.90
2023-03-15T19:01:17.430Z,64.11
2023-03-15T19:04:21.409Z,63.73
2023-03-15T19:07:25.741Z,63.53
2023-03-15T19:10:28.640Z,63.70
2023-03-15T19:13:32.112Z,63.83
2023-03-15T19:16:34.797Z,64.19
2023-03-15T19:19:42.271Z,64.91
2023-03-15T19:22:47.923Z,65.13
2023-03-15T19:25:50.733Z,63.76
2023-03-15T19:28:56.376Z,64.17
2023-03-15T19:32:00.955Z,64.25
2023-03-15T19:35:04.444Z,66.14
2023-03-15T19:38:07.329Z,63.15
2023-03-15T19:41:12.826Z,63.29
2023-03-15T19:44:15.885Z,62.97
2023-03-15T19:47:20.648Z,62.48
2023-03-15T19:50:24.190Z,62.73
2023-03-15T19:53:27.753Z,61.79
2023-03-15T19:56:30.971Z,60.39
2023-03-15T19:59:39.742Z,62.14
2023-03-15T20:02:43.899Z,60.40
2023-03-15T20:05:46.888Z,60.71
2023-03-15T20:08:49.808Z,61.06
2023-03-15T20:11:52.984Z,62.08
2023-03-15T20:14:55.794Z,61.59
2023-03-15T20:17:59.257Z,61.89
2023-03-15T20:21:02.169Z,61.54
2023-03-15T20:24:07.885Z,60.55
2023-03-15T20:27:11.262Z,62.12
2023-03-15T20:30:15.783Z,61.29
2023-03-15T20:33:18.854Z,61.29
2023-03-15T20:36:22.150Z,61.04
2023-03-15T20:39:25.849Z,61.58
2023-03-15T20:42:29.005Z,61.45
2023-03-15T20:45:33.408Z,61.85
2023-03-15T20:48:37.559Z,60.39
2023-03-15T20:51:40.652Z,61.66
2023-03-15T20:54:43.602Z,61.56
2023-03-15T20:57:46.420Z,61.59
2023-03-15T21:00:49.411Z,60.69
2023-03-15T21:03:54.763Z,60.55
2023-03-15T21:07:04.090Z,61.14
2023-03-15T21:10:07.058Z,61.46
2023-03-15T21:13:11.200Z,61.38
2023-03-15T21:16:14.612Z,61.83
2023-03-15T21:19:17.642Z,60.99
2023-03-15T21:22:20.622Z,62.03
2023-03-15T21:25:23.880Z,60.25
2023-03-15T21:28:26.724Z,61.51
2023-03-15T21:31:29.669Z,61.84
2023-03-15T21:34:33.032Z,62.63
2023-03-15T21:37:35.934Z,62.77
2023-03-15T21:40:39.236Z,62.22
2023-03-15T21:43:42.122Z,62.61
2023-03-15T21:46:44.896Z,63.28
2023-03-15T21:49:48.177Z,62.48
2023-03-15T21:52:50.837Z,63.31
2023-03-15T21:55:58.195Z,62.92
2023-03-15T21:59:01.748Z,62.29
2023-03-15T22:02:04.787Z,63.62
2023-03-15T22:05:07.594Z,63.38
2023-03-15T22:08:10.244Z,63.32
2023-03-15T22:11:13.181Z,64.09
2023-03-15T22:14:15.740Z,63.82
2023-03-15T22:17:19.095Z,64.09
2023-03-15T22:20:22.300Z,64.31
2023-03-15T22:23:25.368Z,63.33
2023-03-15T22:26:28.075Z,61.89
2023-03-15T22:29:30.818Z,63.65
2023-03-15T22:32:33.539Z,63.62
2023-03-15T22:35:36.149Z,63.00
2023-03-15T22:38:38.822Z,63.77
2023-03-15T22:41:41.512Z,62.42
2023-03-15T22:44:45.881Z,62.41
2023-03-15T22:47:49.615Z,62.45
2023-03-15T22:51:07.337Z,62.96
2023-03-15T22:54:10.339Z,62.47
2023-03-15T22:57:12.868Z,61.63
2023-03-15T23:00:20.957Z,63.04
2023-03-15T23:03:23.997Z,62.15
2023-03-15T23:06:26.567Z,62.47
2023-03-15T23:09:29.142Z,62.45
2023-03-15T23:12:36.202Z,62.48
2023-03-15T23:15:39.381Z,61.64
2023-03-15T23:18:42.750Z,61.27
2023-03-15T23:21:45.606Z,61.51
2023-03-15T23:24:48.483Z,61.24
2023-03-15T23:27:51.494Z,62.12
2023-03-15T23:30:54.123Z,61.67
2023-03-15T23:33:56.702Z,61.16
2023-03-15T23:36:59.274Z,60.85
2023-03-15T23:40:02.121Z,60.99
2023-03-15T23:43:05.957Z,60.99
2023-03-15T23:46:08.756Z,60.07
2023-03-15T23:49:12.740Z,61.36
2023-03-15T23:52:15.662Z,62.18
2023-03-15T23:55:18.567Z,61.55
2023-03-15T23:58:21.484Z,61.25
